This is the latest recevied weather packets stored in our database for station/object N2XGL-1. If no packets are shown the sender has not sent any weather packets the latest 10 day(s).
| Time | Temp. | Humidity | Pressure | Rain* | Wind** | Luminosity | Snow |
|---|---|---|---|---|---|---|---|
| 1777785483 | 10.56° C | 28% | 1010.3 hPa | 0 mm | - | - | - |
| 1777784893 | 10.56° C | 28% | 1010.3 hPa | 0 mm | - | - | - |
| 1777784374 | 10.56° C | 27% | 1010.4 hPa | 0 mm | - | - | - |
| 1777784321 | 10.56° C | 27% | 1010.4 hPa | 0 mm | - | - | - |
| 1777783728 | 10.56° C | 26% | 1010.6 hPa | 0 mm | - | - | - |
| 1777783173 | 10.56° C | 27% | 1010.8 hPa | 0 mm | - | - | - |
| 1777781468 | 10.56° C | 26% | 1010.7 hPa | 0 mm | - | - | - |
| 1777780988 | 10.56° C | 26% | 1010.7 hPa | 0 mm | - | - | - |
| 1777780901 | 10.56° C | 26% | 1010.7 hPa | 0 mm | - | - | - |
| 1777780518 | 11.11° C | 27% | 1010.6 hPa | 0 mm | - | - | - |
| 1777780401 | 11.11° C | 27% | 1010.6 hPa | 0 mm | - | - | - |
| 1777779889 | 11.11° C | 27% | 1010.6 hPa | 0 mm | - | - | - |
| 1777779332 | 11.67° C | 30% | 1010.5 hPa | 0 mm | - | - | - |
| 1777778768 | 11.67° C | 29% | 1010.5 hPa | 0 mm | - | - | - |
| 1777778239 | 12.22° C | 27% | 1010.4 hPa | 0 mm | - | - | - |
| 1777777838 | 12.78° C | 27% | 1010.4 hPa | 0 mm | - | - | - |
| 1777777759 | 12.78° C | 27% | 1010.4 hPa | 0 mm | - | - | - |
| 1777777533 | 12.78° C | 28% | 1010.3 hPa | 0 mm | - | - | - |
| 1777777278 | 12.78° C | 28% | 1010.3 hPa | 0 mm | - | - | - |
| 1777776915 | 13.33° C | 27% | 1010.3 hPa | 0 mm | - | - | - |
| 1777776683 | 13.33° C | 27% | 1010.3 hPa | 0 mm | - | - | - |
| 1777775593 | 15° C | 18% | 1010.2 hPa | 0 mm | - | - | - |
| 1777774994 | 15.56° C | 18% | 1010.2 hPa | 0 mm | - | - | - |
| 1777774469 | 16.11° C | 17% | 1010.1 hPa | 0 mm | - | - | - |
| 1777773918 | 16.67° C | 16% | 1010 hPa | 0 mm | - | - | - |
* Rain latest hour (hover to see other rain measurements)
** Current wind speed in m/s (hover to see current wind gust speed)